Monday, December 18, 2017, 11:24 AM EST
Back to Local

KWST, Westerly State Airport

Location: Westerly, RI, United States Lat: 41.35
Local Time: 11:24 AM EST (16:24 GMT) Lon: -71.8
Time Zone: US/Eastern Elev: 82 ft

Show me the last for .
Show Decoded

2017-12-18 11:13 METAR KWST 181613Z AUTO 03003KT 10SM BKN021 OVC047 03/M04 A3007 RMK AO2 PRESFR
                 T00331039 =
2017-12-18 10:53 METAR KWST 181553Z AUTO 00000KT 10SM FEW023 BKN050 OVC060 03/M04 A3009 RMK AO2
                 SLP190 T00281039 =
2017-12-18 09:53 METAR KWST 181453Z AUTO 02003KT 8SM SCT029 BKN034 OVC041 01/M06 A3013 RMK AO2
                 SLP203 T00111056 58017 =
2017-12-18 08:53 METAR KWST 181353Z AUTO 01005KT 10SM BKN037 BKN055 OVC075 M01/M07 A3015 RMK AO2
                 SLP210 T10061072 =
2017-12-18 07:53 METAR KWST 181253Z AUTO 02004KT 10SM BKN047 BKN055 OVC070 M01/M08 A3017 RMK AO2
                 SLP216 T10111083 =
2017-12-18 06:53 METAR KWST 181153Z AUTO 36004KT 10SM SCT028 OVC036 M02/M09 A3018 RMK AO2 SLP219
                 T10171089 11017 21022 56008 =
2017-12-18 05:53 METAR KWST 181053Z AUTO 01005KT 10SM OVC027 M02/M09 A3018 RMK AO2 SLP220
                 T10171089 =
2017-12-18 04:53 METAR KWST 180953Z AUTO 01005KT 10SM OVC025 M02/M09 A3019 RMK AO2 SLP224
                 T10171089 =
2017-12-18 03:53 METAR KWST 180853Z AUTO 01004KT 10SM OVC024 M02/M10 A3020 RMK AO2 SLP228
                 T10171100 58007 =
2017-12-18 02:53 METAR KWST 180753Z AUTO 01003KT 10SM OVC025 M02/M09 A3022 RMK AO2 SLP232
                 T10221094 =
2017-12-18 02:34 METAR KWST 180734Z AUTO 02003KT 10SM BKN026 OVC031 M02/M09 A3022 RMK AO2
                 T10221094 =
2017-12-18 01:53 METAR KWST 180653Z AUTO 03004KT 10SM FEW032 BKN110 M02/M09 A3023 RMK AO2 SLP236
                 T10221094 =
2017-12-18 00:53 METAR KWST 180553Z AUTO 00000KT 10SM FEW120 M02/M09 A3023 RMK AO2 SLP235
                 T10221089 11017 21028 58014 =
2017-12-17 23:53 METAR KWST 180453Z AUTO 00000KT 10SM FEW045 OVC055 M02/M08 A3025 RMK AO2 SLP243
                 T10221078 400061061 =
2017-12-17 22:53 METAR KWST 180353Z AUTO 00000KT 10SM BKN095 M02/M08 A3026 RMK AO2 SLP248
                 T10221083 =
2017-12-17 21:53 METAR KWST 180253Z AUTO 00000KT 10SM FEW120 M02/M08 A3027 RMK AO2 SLP249
                 T10221078 58005 =
2017-12-17 20:53 METAR KWST 180153Z AUTO 00000KT 10SM CLR M02/M08 A3028 RMK AO2 SLP255 T10221083
                 =
2017-12-17 19:53 METAR KWST 180053Z AUTO 00000KT 10SM CLR M02/M10 A3029 RMK AO2 SLP258 T10171100
                 =
2017-12-17 18:53 METAR KWST 172353Z AUTO 00000KT 10SM CLR M02/M10 A3028 RMK AO2 SLP254 T10221100
                 10006 21022 51010 =
2017-12-17 17:53 METAR KWST 172253Z AUTO 35004KT 10SM CLR M02/M12 A3027 RMK AO2 SLP249 T10171117
                 =
2017-12-17 16:53 METAR KWST 172153Z AUTO 31003KT 10SM CLR M01/M13 A3027 RMK AO2 SLP250 T10111128
                 =
2017-12-17 15:53 METAR KWST 172053Z AUTO 32004KT 10SM CLR M01/M13 A3025 RMK AO2 SLP244 T10061133
                 55003 =
2017-12-17 14:53 METAR KWST 171953Z AUTO 30004KT 10SM CLR M01/M16 A3024 RMK AO2 SLP241 T10061161
                 =
2017-12-17 13:53 METAR KWST 171853Z AUTO 30004KT 10SM CLR 00/M16 A3024 RMK AO2 SLP241 T00001156 =
2017-12-17 12:53 METAR KWST 171753Z AUTO 33005KT 10SM CLR 00/M14 A3026 RMK AO2 SLP247 T00001144
                 10000 21061 55013 =
2017-12-17 11:53 METAR KWST 171653Z AUTO 32006KT 10SM CLR 00/M14 A3026 RMK AO2 SLP246 T00001144 =

Support USWX by starting your Amazon purchase here.